Airfield :
LOGIN :

Register | Disclaimer

   EN    FR    IT 

 










Legend :    VFR   Marginal VFR   IFR   Intensive IFR   Very Intensive IFR
Visi :
Ceiling :
>= 8 km
>= 3000ft
5 to 8 km
1000 to 3000 ft
1500m to 5 km
500 to 1000 ft
800 to 1500m
200 to 500 ft
< 800m
< 200 ft
Symbols :   Thunderstorms  Fog  Heavy snow  Heavy precipitations  Wind > 20 kt
SIGMETs :     Misc.  Thunderstorms  Icing  Turbulence  Mountain Waves  Volcanic Ashes







- Airport Elevation : 194 ft
- IATA code : IEG


EPZG - Zielona Gora Babimost

CURRENT METAR :
  • 191200Z 29010KT 240V340 9999 SCT045 15/04 Q1026

EXPIRED METARs :
  • 191130Z 28007KT 240V320 9999 FEW040CB BKN044 15/06 Q1026
  • 191100Z 29007KT 260V330 9999 BKN032CB 14/06 Q1026
  • 191030Z 28009KT 250V320 9999 BKN032 14/06 Q1026
  • 191000Z 27009KT 240V330 9999 BKN025 14/07 Q1026
  • 190930Z 28006KT 240V320 9999 SCT017 13/07 Q1026

TAF TAF EPZG
Valid from the 19 at 12:00 until the 19 at 21:00 UTC


191130Z 1912/1921 29010KT 9999 SCT030
TEMPO 1912/1915 29015G25KT SHRA BKN025CB
No reported NOTAMs for that airfield.



MET'MAP, your aeronautical weather chart ! - Copyright ORBIFLY December 2007 - Disclaimer

ORBIFLY MET'MAP TEAM :

Programming & Development : Alexandra Zaïnal
Concept & Development : Baudouin d'Aumeries
Co-Development & Prog : Marc-Olivier Méhu
Technical & hardware support : Manuel Goepfert

Contact : metmap@orbifly.com




SOURCES & CREDITS :

   NOAA